createdAt,value
2023-05-06T00:01:00.724Z,100417.91
2023-05-06T00:06:06.250Z,100403.94
2023-05-06T00:11:07.703Z,100406.44
2023-05-06T00:16:09.852Z,100415.81
2023-05-06T00:21:11.383Z,100409.72
2023-05-06T00:26:14.152Z,100407.56
2023-05-06T00:31:15.612Z,100399.56
2023-05-06T00:36:17.437Z,100393.34
2023-05-06T00:41:18.924Z,100393.53
2023-05-06T00:46:20.951Z,100366.75
2023-05-06T00:51:22.980Z,100353.22
2023-05-06T00:56:25.707Z,100361.03
2023-05-06T01:01:29.589Z,100345.66
2023-05-06T01:06:54.779Z,100352.34
2023-05-06T01:12:24.185Z,100349.56
2023-05-06T01:17:28.325Z,100357.59
2023-05-06T01:22:31.460Z,100346.84
2023-05-06T01:27:32.891Z,100364.19
2023-05-06T01:33:11.641Z,100368.66
2023-05-06T01:38:42.301Z,100377.25
2023-05-06T01:43:47.989Z,100368.19
2023-05-06T01:48:53.920Z,100363.16
2023-05-06T01:53:57.409Z,100346.78
2023-05-06T01:58:59.724Z,100353.00
2023-05-06T02:04:01.789Z,100336.50
2023-05-06T02:09:04.109Z,100334.44
2023-05-06T02:14:08.761Z,100336.50
2023-05-06T02:19:12.272Z,100335.63
2023-05-06T02:24:13.861Z,100329.53
2023-05-06T02:29:15.325Z,100319.28
2023-05-06T02:34:17.221Z,100325.59
2023-05-06T02:39:18.640Z,100326.84
2023-05-06T02:44:20.105Z,100330.59
2023-05-06T02:49:21.524Z,100321.59
2023-05-06T03:14:25.945Z,100320.19
2023-05-06T03:20:12.642Z,100314.22
2023-05-06T03:25:20.163Z,100311.97
2023-05-06T03:30:22.598Z,100314.41
2023-05-06T03:35:27.680Z,100311.78
2023-05-06T03:40:32.733Z,100317.38
2023-05-06T03:45:34.564Z,100307.63
2023-05-06T03:50:38.351Z,100310.63
2023-05-06T03:55:40.041Z,100310.97
2023-05-06T04:00:41.834Z,100307.69
2023-05-06T04:05:43.416Z,100312.22
2023-05-06T04:10:47.174Z,100316.53
2023-05-06T04:15:56.736Z,100332.22
2023-05-06T04:21:03.459Z,100336.72
2023-05-06T04:26:07.426Z,100337.34
2023-05-06T04:31:14.524Z,100343.81
2023-05-06T04:36:19.892Z,100341.06
2023-05-06T04:41:35.485Z,100349.47
2023-05-06T04:46:37.286Z,100346.91
2023-05-06T04:51:38.959Z,100343.19
2023-05-06T04:56:40.593Z,100348.25
2023-05-06T05:01:44.768Z,100349.09
2023-05-06T05:06:46.402Z,100357.53
2023-05-06T05:11:49.485Z,100357.19
2023-05-06T05:16:51.333Z,100359.13
2023-05-06T05:21:52.962Z,100361.84
2023-05-06T05:26:56.204Z,100368.47
2023-05-06T05:31:58.283Z,100372.28
2023-05-06T05:37:00.008Z,100365.16
2023-05-06T05:42:02.240Z,100373.13
2023-05-06T05:47:03.934Z,100374.16
2023-05-06T05:52:07.344Z,100377.13
2023-05-06T05:57:09.331Z,100384.88
2023-05-06T06:02:11.833Z,100383.16
2023-05-06T06:07:13.407Z,100382.31
2023-05-06T06:12:18.040Z,100385.00
2023-05-06T06:17:20.304Z,100392.91
2023-05-06T06:22:23.482Z,100396.63
2023-05-06T06:27:25.778Z,100403.16
2023-05-06T06:32:27.603Z,100400.81
2023-05-06T06:37:29.080Z,100404.47
2023-05-06T06:42:30.603Z,100405.31
2023-05-06T06:47:41.583Z,100408.81
2023-05-06T06:52:43.097Z,100412.97
2023-05-06T06:57:44.592Z,100426.06
2023-05-06T07:02:48.072Z,100429.47
2023-05-06T07:07:49.593Z,100431.75
2023-05-06T07:12:51.076Z,100435.34
2023-05-06T07:17:52.560Z,100444.50
2023-05-06T07:22:54.042Z,100449.47
2023-05-06T07:27:55.502Z,100456.63
2023-05-06T07:32:57.374Z,100453.94
2023-05-06T07:37:58.874Z,100456.59
2023-05-06T07:43:00.426Z,100467.84
2023-05-06T07:48:01.914Z,100463.97
2023-05-06T07:53:03.970Z,100476.13
2023-05-06T07:58:05.748Z,100484.91
2023-05-06T08:03:07.484Z,100492.84
2023-05-06T08:08:08.991Z,100487.59
2023-05-06T08:13:11.614Z,100495.47
2023-05-06T08:18:21.697Z,100497.78
2023-05-06T08:23:24.602Z,100505.84
2023-05-06T08:28:26.135Z,100518.22
2023-05-06T08:33:27.594Z,100513.97
2023-05-06T08:38:29.834Z,100517.38
2023-05-06T08:43:33.429Z,100529.16
2023-05-06T08:48:35.174Z,100532.66
2023-05-06T08:53:37.023Z,100534.88
2023-05-06T08:58:48.155Z,100544.69
2023-05-06T09:03:50.127Z,100549.56
2023-05-06T09:08:51.564Z,100555.94
2023-05-06T09:14:17.418Z,100553.56
2023-05-06T09:19:20.504Z,100547.72
2023-05-06T09:24:22.170Z,100543.38
2023-05-06T09:29:23.686Z,100542.47
2023-05-06T09:34:25.197Z,100544.47
2023-05-06T09:39:27.596Z,100555.31
2023-05-06T09:44:29.116Z,100555.28
2023-05-06T09:49:31.109Z,100562.69
2023-05-06T09:54:33.120Z,100558.41
2023-05-06T09:59:36.212Z,100560.09
2023-05-06T10:04:40.708Z,100556.00
2023-05-06T10:09:42.579Z,100575.50
2023-05-06T10:14:44.037Z,100572.13
2023-05-06T10:19:46.845Z,100567.75
2023-05-06T10:24:55.912Z,100571.22
2023-05-06T10:29:59.818Z,100584.09
2023-05-06T10:35:08.522Z,100577.38
2023-05-06T10:40:11.584Z,100572.28
2023-05-06T10:45:15.253Z,100582.75
2023-05-06T10:50:27.150Z,100583.28
2023-05-06T10:55:35.186Z,100578.41
2023-05-06T11:00:39.816Z,100579.63
2023-05-06T11:05:54.638Z,100584.25
2023-05-06T11:10:56.216Z,100585.91
2023-05-06T11:15:58.439Z,100583.19
2023-05-06T11:20:59.825Z,100589.75
2023-05-06T11:26:01.621Z,100586.38
2023-05-06T11:31:03.213Z,100597.50
2023-05-06T11:36:05.178Z,100603.81
2023-05-06T11:41:07.358Z,100596.69
2023-05-06T11:46:08.798Z,100605.22
2023-05-06T11:51:10.245Z,100611.69
2023-05-06T11:56:11.837Z,100622.81
2023-05-06T12:01:13.265Z,100611.91
2023-05-06T12:06:14.912Z,100629.44
2023-05-06T12:11:16.359Z,100626.84
2023-05-06T12:16:18.126Z,100626.84
2023-05-06T12:21:24.192Z,100633.44
2023-05-06T12:26:30.534Z,100633.63
2023-05-06T12:31:32.788Z,100632.19
2023-05-06T12:36:42.404Z,100627.03
2023-05-06T12:41:45.661Z,100620.28
2023-05-06T12:46:52.493Z,100626.16
2023-05-06T12:52:11.129Z,100627.81
2023-05-06T12:57:13.362Z,100640.88
2023-05-06T13:02:15.223Z,100641.13
2023-05-06T13:07:16.706Z,100630.56
2023-05-06T13:12:18.135Z,100639.94
2023-05-06T13:17:19.664Z,100637.38
2023-05-06T13:22:21.129Z,100644.97
2023-05-06T13:27:22.558Z,100654.13
2023-05-06T13:38:52.139Z,100665.06
2023-05-06T13:43:56.483Z,100673.69
2023-05-06T13:48:57.904Z,100678.72
2023-05-06T13:53:59.387Z,100675.19
2023-05-06T13:59:00.805Z,100673.88
2023-05-06T14:04:02.225Z,100678.94
2023-05-06T14:09:04.648Z,100668.97
2023-05-06T14:14:06.878Z,100670.91
2023-05-06T14:19:08.308Z,100662.91
2023-05-06T14:24:10.820Z,100675.13
2023-05-06T14:29:12.264Z,100672.94
2023-05-06T14:34:13.697Z,100677.84
2023-05-06T14:39:18.686Z,100667.84
2023-05-06T14:44:20.672Z,100674.56
2023-05-06T14:49:22.158Z,100683.84
2023-05-06T14:54:23.588Z,100686.06
2023-05-06T14:59:25.441Z,100688.94
2023-05-06T15:04:27.457Z,100694.56
2023-05-06T15:09:28.927Z,100697.94
2023-05-06T15:14:30.484Z,100690.88
2023-05-06T15:19:33.417Z,100692.94
2023-05-06T15:24:35.765Z,100687.50
2023-05-06T15:29:38.961Z,100682.88
2023-05-06T15:34:40.809Z,100685.28
2023-05-06T15:39:42.299Z,100692.53
2023-05-06T15:44:43.846Z,100702.16
2023-05-06T15:49:52.907Z,100708.78
2023-05-06T15:54:59.481Z,100690.75
2023-05-06T16:00:01.785Z,100706.94
2023-05-06T16:05:06.796Z,100712.66
2023-05-06T16:10:08.927Z,100715.94
2023-05-06T16:15:10.662Z,100717.88
2023-05-06T16:20:12.784Z,100717.69
2023-05-06T16:25:14.471Z,100709.47
2023-05-06T16:30:16.118Z,100714.63
2023-05-06T16:35:17.945Z,100717.66
2023-05-06T16:40:20.970Z,100711.13
2023-05-06T16:45:47.662Z,100716.53
2023-05-06T16:50:49.113Z,100713.66
2023-05-06T16:55:50.555Z,100707.13
2023-05-06T17:00:54.294Z,100720.75
2023-05-06T17:05:55.876Z,100705.38
2023-05-06T17:10:57.342Z,100719.81
2023-05-06T17:16:03.588Z,100719.16
2023-05-06T17:21:08.756Z,100727.41
2023-05-06T17:26:10.604Z,100729.38
2023-05-06T17:31:12.384Z,100729.44
2023-05-06T17:36:14.024Z,100745.00
2023-05-06T17:41:15.780Z,100731.72
2023-05-06T17:46:19.523Z,100740.50
2023-05-06T17:51:21.172Z,100747.25
2023-05-06T17:56:22.590Z,100755.00
2023-05-06T18:01:24.090Z,100759.41
2023-05-06T18:06:26.977Z,100759.75
2023-05-06T18:11:28.460Z,100777.44
2023-05-06T18:16:30.025Z,100769.25
2023-05-06T18:21:33.858Z,100773.91
2023-05-06T18:26:44.491Z,100788.38
2023-05-06T18:31:46.652Z,100779.00
2023-05-06T18:36:48.136Z,100789.06
2023-05-06T18:41:49.612Z,100795.06
2023-05-06T18:46:51.043Z,100799.81
2023-05-06T18:51:54.025Z,100808.94
2023-05-06T18:56:55.513Z,100808.06
2023-05-06T19:01:57.057Z,100811.72
2023-05-06T19:06:58.566Z,100810.78
2023-05-06T19:11:59.993Z,100812.88
2023-05-06T19:17:03.676Z,100818.81
2023-05-06T19:22:05.168Z,100827.09
2023-05-06T19:27:06.651Z,100821.06
2023-05-06T19:32:08.586Z,100832.53
2023-05-06T19:37:10.008Z,100825.72
2023-05-06T19:42:11.432Z,100850.88
2023-05-06T19:47:13.193Z,100843.41
2023-05-06T19:52:14.659Z,100840.69
2023-05-06T19:57:16.073Z,100844.78
2023-05-06T20:02:17.518Z,100831.97
2023-05-06T20:07:20.561Z,100832.69
2023-05-06T20:12:23.573Z,100829.06
2023-05-06T20:17:25.098Z,100833.84
2023-05-06T20:22:27.059Z,100830.94
2023-05-06T20:27:28.494Z,100848.44
2023-05-06T20:32:30.996Z,100843.63
2023-05-06T20:37:36.074Z,100842.97
2023-05-06T20:42:37.635Z,100837.13
2023-05-06T20:47:39.115Z,100838.94
2023-05-06T20:52:40.562Z,100846.06
2023-05-06T20:57:43.391Z,100856.03
2023-05-06T21:02:44.950Z,100857.97
2023-05-06T21:07:46.921Z,100851.75
2023-05-06T21:12:49.483Z,100860.81
2023-05-06T21:17:51.133Z,100862.31
2023-05-06T21:22:52.640Z,100861.19
2023-05-06T21:27:54.073Z,100867.13
2023-05-06T21:32:55.617Z,100868.84
2023-05-06T21:37:57.055Z,100877.00
2023-05-06T21:42:58.498Z,100873.34
2023-05-06T21:48:00.108Z,100870.09
2023-05-06T21:53:01.569Z,100885.88
2023-05-06T21:58:02.926Z,100884.06
2023-05-06T22:03:04.431Z,100880.22
2023-05-06T22:08:06.562Z,100880.97
2023-05-06T22:13:08.130Z,100884.06
2023-05-06T22:18:10.245Z,100883.81
2023-05-06T22:23:12.349Z,100883.63
2023-05-06T22:28:13.792Z,100883.50
2023-05-06T22:33:15.238Z,100878.19
2023-05-06T22:38:16.656Z,100888.59
2023-05-06T22:43:18.068Z,100890.16
2023-05-06T22:48:19.483Z,100886.56
2023-05-06T22:53:20.897Z,100886.75
2023-05-06T22:58:22.367Z,100892.72
2023-05-06T23:03:23.932Z,100901.72
2023-05-06T23:08:25.453Z,100901.00
2023-05-06T23:13:27.193Z,100892.53
2023-05-06T23:18:28.659Z,100897.47
2023-05-06T23:23:30.094Z,100900.94
2023-05-06T23:28:31.559Z,100889.84
2023-05-06T23:33:33.005Z,100896.75
2023-05-06T23:38:34.420Z,100894.81
2023-05-06T23:43:35.846Z,100905.09
2023-05-06T23:48:37.994Z,100893.53
2023-05-06T23:53:40.185Z,100894.34
2023-05-06T23:58:41.607Z,100909.06
